Iowa Falls, IA

8:23 PM CDT on April 24, 2018 (GMT -0500)
Iowa Falls Municipal

Weather History for KIFA - March, 2013

Change the Weather History Date:

Saturday, March 9, 2013

  Actual Average Record
Temperature  
Mean Temperature 34 °F -  
Max Temperature 37 °F 43 °F 67 °F (1967)
Min Temperature 33 °F 22 °F -5 °F (1969)
Degree Days  
Heating Degree Days 30    
Moisture  
Dew Point 34 °F    
Average Humidity 94    
Maximum Humidity 96    
Minimum Humidity 89    
Precipitation  
Precipitation 0.64 in - - ()
Sea Level Pressure  
Sea Level Pressure 29.82 in    
Wind  
Wind Speed 15 mph (SE)    
Max Wind Speed 22 mph    
Max Gust Speed 25 mph    
Visibility 2 miles    
Events Rain , Snow    
Averages and records for this station are not official NWS values.
T = Trace of Precipitation, MM = Missing Value Source: NWS Daily Summary

Daily Weather History Graph

Daily Weather History Graph

Search for Another Location

Airport or City:

Astronomy

Mar. 09, 2013 Rise Set
Actual Time 6:34 AM CST 6:12 PM CST
Civil Twilight 6:06 AM CST 6:40 PM CST
Nautical Twilight 5:34 AM CST 7:13 PM CST
Astronomical Twilight 5:01 AM CST 7:46 PM CST
Moon 5:01 AM CST (3/9) 4:13 PM CST (3/9)
Length of Visible Light 12h 34m
Length of Day
11h 38m
Waning Crescent, 5% of the Moon is Illuminated
Mar 9
Waning Crescent
Mar 11
New
Mar 19
First Quarter
Mar 27
Full
Apr 2
Last Quarter

Hourly Weather History & Observations

Time (CST) Temp. Windchill Dew Point Humidity Pressure Visibility Wind Dir Wind Speed Gust Speed Precip Events Conditions
12:15 AM 34.7 °F 24.7 °F 32.0 °F 90% 30.05 in 5.0 mi SE 16.1 mph - 0.01 in Rain Light Rain
12:55 AM 34.9 °F 25.3 °F 32.0 °F 89% 30.04 in 4.0 mi SE 15.0 mph - 0.01 in Rain Light Rain
1:15 AM 34.9 °F 25.3 °F 32.2 °F 90% 30.04 in 4.0 mi SE 15.0 mph - 0.01 in Rain Rain
1:35 AM 35.1 °F 26.4 °F 32.0 °F 89% 30.05 in 7.0 mi SE 12.7 mph - 0.02 in Rain Light Rain
1:55 AM 34.7 °F 26.9 °F 32.0 °F 90% 30.05 in 3.0 mi SE 10.4 mph - 0.05 in Rain Light Rain
2:15 AM 34.9 °F 27.1 °F 32.4 °F 91% 30.04 in 2.5 mi SE 10.4 mph - 0.06 in   Overcast
2:35 AM 34.7 °F 27.5 °F 32.5 °F 92% 30.03 in 2.0 mi SE 9.2 mph - 0.13 in   Overcast
2:55 AM 34.7 °F 25.1 °F 32.5 °F 92% 30.00 in 2.5 mi SE 15.0 mph 19.6 mph 0.18 in Rain Rain
3:15 AM 34.7 °F 24.0 °F 32.5 °F 92% 29.99 in 3.0 mi SE 18.4 mph - 0.03 in Rain Light Rain
3:35 AM 34.7 °F 24.0 °F 32.4 °F 91% 29.97 in 3.0 mi SE 18.4 mph - 0.06 in Rain Light Rain
3:55 AM 34.2 °F 23.3 °F 32.2 °F 92% 29.96 in 2.0 mi ESE 18.4 mph 23.0 mph 0.10 in Rain Light Rain
4:15 AM 34.2 °F 23.0 °F 32.4 °F 93% 29.95 in 2.5 mi SE 19.6 mph 24.2 mph 0.03 in Rain Light Rain
4:35 AM 34.2 °F 23.6 °F 32.4 °F 93% 29.94 in 2.5 mi SE 17.3 mph 24.2 mph 0.07 in Rain Light Rain
4:55 AM 33.8 °F 22.5 °F 32.0 °F 93% 29.94 in 2.0 mi SE 19.6 mph 25.3 mph 0.11 in Rain Rain
5:15 AM 33.8 °F 23.2 °F 32.2 °F 94% 29.94 in 3.0 mi SE 17.3 mph 25.3 mph N/A Rain Light Rain
5:55 AM 34.0 °F 23.0 °F 32.4 °F 94% 29.93 in 2.5 mi SE 18.4 mph - 0.02 in Rain Light Rain
6:15 AM 34.0 °F 23.8 °F 32.4 °F 94% 29.92 in 2.0 mi SE 16.1 mph - N/A Rain Light Rain
6:35 AM 34.2 °F 24.4 °F 32.9 °F 95% 29.92 in 2.0 mi SE 15.0 mph - N/A Rain Light Rain
6:55 AM 34.3 °F 23.9 °F 32.9 °F 94% 29.90 in 3.0 mi SE 17.3 mph - N/A   Overcast
7:15 AM 34.7 °F 24.7 °F 33.3 °F 94% 29.91 in 2.5 mi SE 16.1 mph - N/A   Overcast
7:35 AM 34.9 °F 24.2 °F 33.4 °F 94% 29.90 in 2.0 mi SE 18.4 mph - N/A   Overcast
7:55 AM 35.1 °F 24.1 °F 33.8 °F 95% 29.89 in 2.0 mi SE 19.6 mph 25.3 mph N/A   Overcast
8:15 AM 35.1 °F 24.8 °F 33.8 °F 95% 29.88 in 1.5 mi SE 17.3 mph 21.9 mph N/A   Overcast
8:35 AM 34.9 °F 24.2 °F 33.4 °F 94% 29.89 in 1.2 mi SE 18.4 mph 23.0 mph N/A   Overcast
8:55 AM 34.3 °F 24.6 °F 32.9 °F 94% 29.89 in 0.5 mi SE 15.0 mph - N/A Snow Light Snow
9:15 AM 34.7 °F 24.7 °F 33.3 °F 94% 29.86 in 0.8 mi SE 16.1 mph - N/A Snow Light Snow
9:35 AM 35.1 °F 24.8 °F 33.8 °F 95% 29.85 in 1.2 mi SE 17.3 mph - N/A   Overcast
9:55 AM 35.1 °F 25.9 °F 33.8 °F 95% 29.84 in 1.5 mi SE 13.8 mph - N/A   Overcast
10:15 AM 35.2 °F 25.8 °F 33.8 °F 94% 29.83 in 2.0 mi SE 15.0 mph - N/A   Overcast
10:35 AM 35.1 °F 24.5 °F 33.8 °F 95% 29.82 in 2.0 mi SE 18.4 mph 23.0 mph N/A   Overcast
10:55 AM 35.4 °F 25.3 °F 33.8 °F 94% 29.82 in 2.5 mi SE 17.3 mph 21.9 mph N/A   Overcast
11:15 AM 35.6 °F 24.5 °F 34.0 °F 94% 29.82 in 3.0 mi SSE 20.7 mph - N/A   Overcast
11:35 AM 35.6 °F 24.8 °F 34.2 °F 94% 29.81 in 2.5 mi SSE 19.6 mph 25.3 mph N/A   Overcast
11:55 AM 35.2 °F 24.4 °F 33.8 °F 94% 29.79 in 2.0 mi SSE 19.6 mph - N/A Rain Light Rain
12:15 PM 35.2 °F 24.1 °F 33.8 °F 94% 29.79 in 2.5 mi SSE 20.7 mph 24.2 mph N/A Rain Light Rain
12:35 PM 35.6 °F 24.5 °F 33.8 °F 93% 29.77 in 2.5 mi SSE 20.7 mph - 0.01 in Rain Light Rain
12:55 PM 35.6 °F 25.2 °F 33.8 °F 93% 29.75 in 2.0 mi SE 18.4 mph - 0.03 in Rain Light Rain
1:15 PM 35.4 °F 25.3 °F 33.8 °F 94% 29.73 in 2.0 mi SE 17.3 mph - 0.03 in Rain Rain
1:35 PM 35.4 °F 24.0 °F 33.8 °F 94% 29.72 in 3.0 mi SE 21.9 mph - 0.04 in Rain Light Rain
1:55 PM 35.6 °F 25.2 °F 34.0 °F 94% 29.70 in 5.0 mi SE 18.4 mph - 0.04 in Rain Light Rain
2:15 PM 35.6 °F 25.2 °F 34.0 °F 94% 29.70 in 4.0 mi SE 18.4 mph - N/A Rain Light Rain
2:35 PM 36.0 °F 26.0 °F 34.3 °F 94% 29.72 in 7.0 mi SSE 17.3 mph - N/A   Light Drizzle
2:55 PM 36.1 °F 26.5 °F 34.5 °F 94% 29.70 in 4.0 mi SSE 16.1 mph - N/A   Overcast
3:15 PM 36.1 °F 26.9 °F 34.7 °F 94% 29.72 in 4.0 mi SSE 15.0 mph 19.6 mph N/A   Overcast
3:35 PM 35.8 °F 27.3 °F 34.0 °F 93% 29.73 in 2.5 mi South 12.7 mph - N/A Rain Light Rain
3:55 PM 35.8 °F 29.4 °F 34.2 °F 94% 29.72 in 2.0 mi SSE 8.1 mph - 0.01 in Rain Rain
4:15 PM 35.6 °F 30.7 °F 34.0 °F 94% 29.73 in 1.5 mi SSE 5.8 mph - N/A Rain Light Rain
4:35 PM 35.1 °F 29.3 °F 33.4 °F 94% 29.72 in 1.2 mi SSE 6.9 mph - N/A   Overcast
4:55 PM 35.6 °F 28.6 °F 34.0 °F 94% 29.73 in 1.2 mi SSE 9.2 mph - N/A   Overcast
5:15 PM 35.2 °F 28.1 °F 33.8 °F 94% 29.72 in 1.0 mi SSE 9.2 mph - N/A   Overcast
5:35 PM 35.4 °F 27.3 °F 33.8 °F 94% 29.72 in 1.0 mi SSE 11.5 mph - N/A   Overcast
5:55 PM 35.8 °F 27.3 °F 34.3 °F 94% 29.71 in 2.0 mi SSE 12.7 mph - N/A   Overcast
6:15 PM 35.4 °F 26.4 °F 33.8 °F 94% 29.71 in 2.5 mi SSE 13.8 mph - N/A   Overcast
6:35 PM 35.6 °F 27.5 °F 34.0 °F 94% 29.71 in 2.5 mi SSE 11.5 mph - N/A   Overcast
6:55 PM 35.2 °F 28.1 °F 33.8 °F 94% 29.69 in 2.0 mi SE 9.2 mph - N/A   Overcast
7:15 PM 35.6 °F 28.6 °F 34.0 °F 94% 29.71 in 2.5 mi SE 9.2 mph - N/A   Overcast
7:35 PM 35.1 °F 27.9 °F 33.8 °F 95% 29.71 in 2.0 mi SE 9.2 mph - N/A   Overcast
7:55 PM 35.6 °F 29.2 °F 34.0 °F 94% 29.71 in 1.5 mi SE 8.1 mph - N/A   Overcast
8:15 PM 34.7 °F 29.6 °F 33.3 °F 94% 29.71 in 0.5 mi SE 5.8 mph - N/A Snow Light Snow
8:55 PM 35.1 °F 28.6 °F 33.8 °F 95% 29.72 in 0.8 mi SE 8.1 mph - N/A Snow Light Snow
9:15 PM 36.0 °F 28.5 °F 34.7 °F 95% 29.72 in 1.8 mi SE 10.4 mph - N/A   Overcast
9:35 PM 36.5 °F 29.2 °F 35.4 °F 96% 29.72 in 1.5 mi SE 10.4 mph - 0.03 in Rain Heavy Rain
9:55 PM 36.9 °F 30.1 °F 35.6 °F 95% 29.71 in 2.5 mi SE 9.2 mph - 0.05 in   Overcast
10:15 PM 36.7 °F 30.5 °F 35.4 °F 95% 29.72 in 2.5 mi SE 8.1 mph - N/A   Overcast
10:35 PM 35.8 °F 29.4 °F 34.7 °F 96% 29.72 in 1.8 mi SE 8.1 mph - N/A   Overcast
10:55 PM 35.6 °F 29.2 °F 34.3 °F 95% 29.71 in 0.8 mi ESE 8.1 mph - N/A Snow Light Snow
11:15 PM 36.1 °F 29.3 °F 34.9 °F 95% 29.70 in 0.5 mi SE 9.2 mph - 0.01 in Rain Rain
11:35 PM 35.4 °F 30.5 °F 34.0 °F 94% 29.69 in 0.2 mi ESE 5.8 mph - 0.03 in Rain Light Rain
11:55 PM 37.6 °F 31.6 °F 36.3 °F 95% 29.70 in 0.8 mi North 8.1 mph - 0.04 in   Overcast